sensor_id;sensor_type;location;lat;lon;timestamp;P1;durP1;ratioP1;P2;durP2;ratioP2
21175;SDS011;10746;50.178;8.186;2023-04-27T00:02:21;8.47;;;4.67;;
21175;SDS011;10746;50.178;8.186;2023-04-27T00:04:48;8.60;;;4.53;;
21175;SDS011;10746;50.178;8.186;2023-04-27T00:07:15;29.20;;;6.20;;
21175;SDS011;10746;50.178;8.186;2023-04-27T00:09:42;8.00;;;4.70;;
21175;SDS011;10746;50.178;8.186;2023-04-27T00:12:09;11.30;;;5.13;;
21175;SDS011;10746;50.178;8.186;2023-04-27T00:14:35;6.40;;;4.63;;
21175;SDS011;10746;50.178;8.186;2023-04-27T00:17:03;7.97;;;4.67;;
21175;SDS011;10746;50.178;8.186;2023-04-27T00:19:30;9.97;;;4.37;;
21175;SDS011;10746;50.178;8.186;2023-04-27T00:21:57;14.67;;;5.47;;
21175;SDS011;10746;50.178;8.186;2023-04-27T00:24:24;8.47;;;4.50;;
21175;SDS011;10746;50.178;8.186;2023-04-27T00:26:51;6.60;;;3.90;;
21175;SDS011;10746;50.178;8.186;2023-04-27T00:29:18;7.07;;;5.00;;
21175;SDS011;10746;50.178;8.186;2023-04-27T00:31:44;10.17;;;4.80;;
21175;SDS011;10746;50.178;8.186;2023-04-27T00:34:13;7.07;;;4.43;;
21175;SDS011;10746;50.178;8.186;2023-04-27T00:36:39;9.20;;;4.23;;
21175;SDS011;10746;50.178;8.186;2023-04-27T00:39:06;4.70;;;4.20;;
21175;SDS011;10746;50.178;8.186;2023-04-27T00:41:35;6.87;;;4.77;;
21175;SDS011;10746;50.178;8.186;2023-04-27T00:44:02;5.77;;;4.73;;
21175;SDS011;10746;50.178;8.186;2023-04-27T00:46:29;10.83;;;5.47;;
21175;SDS011;10746;50.178;8.186;2023-04-27T00:48:56;9.13;;;4.93;;
21175;SDS011;10746;50.178;8.186;2023-04-27T00:51:25;5.77;;;4.27;;
21175;SDS011;10746;50.178;8.186;2023-04-27T00:53:54;11.50;;;5.00;;
21175;SDS011;10746;50.178;8.186;2023-04-27T00:56:22;8.70;;;4.53;;
21175;SDS011;10746;50.178;8.186;2023-04-27T00:58:49;6.60;;;4.50;;
21175;SDS011;10746;50.178;8.186;2023-04-27T01:01:16;4.83;;;4.00;;
21175;SDS011;10746;50.178;8.186;2023-04-27T01:03:44;8.43;;;4.20;;
21175;SDS011;10746;50.178;8.186;2023-04-27T01:06:11;8.27;;;4.40;;
21175;SDS011;10746;50.178;8.186;2023-04-27T01:08:39;6.97;;;4.47;;
21175;SDS011;10746;50.178;8.186;2023-04-27T01:11:06;11.17;;;4.50;;
21175;SDS011;10746;50.178;8.186;2023-04-27T01:13:33;8.10;;;4.37;;
21175;SDS011;10746;50.178;8.186;2023-04-27T01:16:00;9.27;;;4.23;;
21175;SDS011;10746;50.178;8.186;2023-04-27T01:18:26;6.67;;;4.50;;
21175;SDS011;10746;50.178;8.186;2023-04-27T01:20:53;19.67;;;5.30;;
21175;SDS011;10746;50.178;8.186;2023-04-27T01:23:21;11.07;;;4.40;;
21175;SDS011;10746;50.178;8.186;2023-04-27T01:25:48;8.20;;;4.63;;
21175;SDS011;10746;50.178;8.186;2023-04-27T01:28:15;6.20;;;4.23;;
21175;SDS011;10746;50.178;8.186;2023-04-27T01:30:41;4.40;;;4.00;;
21175;SDS011;10746;50.178;8.186;2023-04-27T01:33:08;5.67;;;4.30;;
21175;SDS011;10746;50.178;8.186;2023-04-27T01:35:35;8.50;;;4.53;;
21175;SDS011;10746;50.178;8.186;2023-04-27T01:38:02;6.00;;;4.70;;
21175;SDS011;10746;50.178;8.186;2023-04-27T01:40:30;5.57;;;4.30;;
21175;SDS011;10746;50.178;8.186;2023-04-27T01:42:56;5.67;;;4.10;;
21175;SDS011;10746;50.178;8.186;2023-04-27T01:45:23;8.73;;;5.07;;
21175;SDS011;10746;50.178;8.186;2023-04-27T01:47:50;7.17;;;4.40;;
21175;SDS011;10746;50.178;8.186;2023-04-27T01:50:17;7.33;;;4.80;;
21175;SDS011;10746;50.178;8.186;2023-04-27T01:52:44;7.90;;;4.97;;
21175;SDS011;10746;50.178;8.186;2023-04-27T01:55:11;12.07;;;5.40;;
21175;SDS011;10746;50.178;8.186;2023-04-27T01:57:39;6.13;;;4.60;;
21175;SDS011;10746;50.178;8.186;2023-04-27T02:00:06;9.73;;;4.70;;
21175;SDS011;10746;50.178;8.186;2023-04-27T02:02:34;9.30;;;4.70;;
21175;SDS011;10746;50.178;8.186;2023-04-27T02:05:01;4.57;;;4.17;;
21175;SDS011;10746;50.178;8.186;2023-04-27T02:07:28;7.03;;;5.30;;
21175;SDS011;10746;50.178;8.186;2023-04-27T02:09:55;11.17;;;4.80;;
21175;SDS011;10746;50.178;8.186;2023-04-27T02:12:22;8.03;;;4.53;;
21175;SDS011;10746;50.178;8.186;2023-04-27T02:14:50;7.90;;;4.93;;
21175;SDS011;10746;50.178;8.186;2023-04-27T02:17:16;7.97;;;5.00;;
21175;SDS011;10746;50.178;8.186;2023-04-27T02:19:43;7.87;;;4.87;;
21175;SDS011;10746;50.178;8.186;2023-04-27T02:22:10;7.50;;;4.90;;
21175;SDS011;10746;50.178;8.186;2023-04-27T02:24:36;10.73;;;4.50;;
21175;SDS011;10746;50.178;8.186;2023-04-27T02:27:03;8.97;;;5.63;;
21175;SDS011;10746;50.178;8.186;2023-04-27T02:29:30;8.73;;;4.63;;
21175;SDS011;10746;50.178;8.186;2023-04-27T02:31:58;8.87;;;4.53;;
21175;SDS011;10746;50.178;8.186;2023-04-27T02:34:25;9.90;;;4.50;;
21175;SDS011;10746;50.178;8.186;2023-04-27T02:36:51;6.83;;;4.67;;
21175;SDS011;10746;50.178;8.186;2023-04-27T02:39:18;8.10;;;4.73;;
21175;SDS011;10746;50.178;8.186;2023-04-27T02:41:44;7.63;;;4.50;;
21175;SDS011;10746;50.178;8.186;2023-04-27T02:44:11;6.20;;;4.60;;
21175;SDS011;10746;50.178;8.186;2023-04-27T02:46:38;6.47;;;4.80;;
21175;SDS011;10746;50.178;8.186;2023-04-27T02:49:06;7.50;;;4.30;;
21175;SDS011;10746;50.178;8.186;2023-04-27T02:51:32;13.40;;;5.63;;
21175;SDS011;10746;50.178;8.186;2023-04-27T02:53:59;5.17;;;4.67;;
21175;SDS011;10746;50.178;8.186;2023-04-27T02:56:26;10.30;;;5.17;;
21175;SDS011;10746;50.178;8.186;2023-04-27T02:58:53;7.63;;;4.73;;
21175;SDS011;10746;50.178;8.186;2023-04-27T03:01:20;6.13;;;4.67;;
21175;SDS011;10746;50.178;8.186;2023-04-27T03:03:47;6.40;;;4.90;;
21175;SDS011;10746;50.178;8.186;2023-04-27T03:06:15;10.63;;;4.80;;
21175;SDS011;10746;50.178;8.186;2023-04-27T03:08:41;10.57;;;5.10;;
21175;SDS011;10746;50.178;8.186;2023-04-27T03:11:08;7.60;;;4.60;;
21175;SDS011;10746;50.178;8.186;2023-04-27T03:13:36;11.17;;;5.93;;
21175;SDS011;10746;50.178;8.186;2023-04-27T03:16:07;9.77;;;5.47;;
21175;SDS011;10746;50.178;8.186;2023-04-27T03:18:35;12.53;;;5.37;;
21175;SDS011;10746;50.178;8.186;2023-04-27T03:21:05;11.73;;;7.40;;
21175;SDS011;10746;50.178;8.186;2023-04-27T03:23:34;12.63;;;7.60;;
21175;SDS011;10746;50.178;8.186;2023-04-27T03:26:04;11.13;;;6.80;;
21175;SDS011;10746;50.178;8.186;2023-04-27T03:28:31;10.10;;;5.90;;
21175;SDS011;10746;50.178;8.186;2023-04-27T03:30:58;10.53;;;5.30;;
21175;SDS011;10746;50.178;8.186;2023-04-27T03:33:25;8.67;;;5.20;;
21175;SDS011;10746;50.178;8.186;2023-04-27T03:35:55;11.50;;;7.07;;
21175;SDS011;10746;50.178;8.186;2023-04-27T03:38:22;9.73;;;6.30;;
21175;SDS011;10746;50.178;8.186;2023-04-27T03:40:51;11.10;;;5.27;;
21175;SDS011;10746;50.178;8.186;2023-04-27T03:43:17;9.43;;;5.73;;
21175;SDS011;10746;50.178;8.186;2023-04-27T03:45:45;10.13;;;5.60;;
21175;SDS011;10746;50.178;8.186;2023-04-27T03:48:12;11.23;;;6.37;;
21175;SDS011;10746;50.178;8.186;2023-04-27T03:50:39;15.13;;;6.60;;
21175;SDS011;10746;50.178;8.186;2023-04-27T03:53:06;14.20;;;8.40;;
21175;SDS011;10746;50.178;8.186;2023-04-27T03:55:33;13.20;;;7.73;;
21175;SDS011;10746;50.178;8.186;2023-04-27T03:58:04;13.37;;;6.50;;
21175;SDS011;10746;50.178;8.186;2023-04-27T04:00:31;13.17;;;6.77;;
21175;SDS011;10746;50.178;8.186;2023-04-27T04:02:57;14.27;;;6.63;;
21175;SDS011;10746;50.178;8.186;2023-04-27T04:05:24;13.97;;;6.50;;
21175;SDS011;10746;50.178;8.186;2023-04-27T04:07:51;14.20;;;6.60;;
21175;SDS011;10746;50.178;8.186;2023-04-27T04:10:18;11.20;;;6.47;;
21175;SDS011;10746;50.178;8.186;2023-04-27T04:12:44;11.87;;;6.60;;
21175;SDS011;10746;50.178;8.186;2023-04-27T04:15:12;9.63;;;5.90;;
21175;SDS011;10746;50.178;8.186;2023-04-27T04:17:39;11.20;;;5.93;;
21175;SDS011;10746;50.178;8.186;2023-04-27T04:20:06;11.10;;;7.47;;
21175;SDS011;10746;50.178;8.186;2023-04-27T04:22:34;10.97;;;6.93;;
21175;SDS011;10746;50.178;8.186;2023-04-27T04:25:01;12.57;;;7.07;;
21175;SDS011;10746;50.178;8.186;2023-04-27T04:27:29;17.33;;;7.40;;
21175;SDS011;10746;50.178;8.186;2023-04-27T04:29:57;17.53;;;6.93;;
21175;SDS011;10746;50.178;8.186;2023-04-27T04:32:26;11.53;;;7.10;;
21175;SDS011;10746;50.178;8.186;2023-04-27T04:34:53;14.70;;;6.70;;
21175;SDS011;10746;50.178;8.186;2023-04-27T04:37:20;17.47;;;7.40;;
21175;SDS011;10746;50.178;8.186;2023-04-27T04:39:47;14.53;;;7.57;;
21175;SDS011;10746;50.178;8.186;2023-04-27T04:42:13;14.23;;;7.17;;
21175;SDS011;10746;50.178;8.186;2023-04-27T04:44:40;10.60;;;6.63;;
21175;SDS011;10746;50.178;8.186;2023-04-27T04:47:07;13.80;;;7.23;;
21175;SDS011;10746;50.178;8.186;2023-04-27T04:49:36;10.73;;;6.60;;
21175;SDS011;10746;50.178;8.186;2023-04-27T04:52:03;9.57;;;6.07;;
21175;SDS011;10746;50.178;8.186;2023-04-27T04:54:30;10.50;;;6.50;;
21175;SDS011;10746;50.178;8.186;2023-04-27T04:56:56;13.07;;;6.80;;
21175;SDS011;10746;50.178;8.186;2023-04-27T04:59:24;10.33;;;5.97;;
21175;SDS011;10746;50.178;8.186;2023-04-27T05:01:52;10.20;;;6.53;;
21175;SDS011;10746;50.178;8.186;2023-04-27T05:04:19;11.00;;;6.43;;
21175;SDS011;10746;50.178;8.186;2023-04-27T05:06:47;10.23;;;7.20;;
21175;SDS011;10746;50.178;8.186;2023-04-27T05:09:14;11.27;;;6.30;;
21175;SDS011;10746;50.178;8.186;2023-04-27T05:11:41;8.43;;;6.07;;
21175;SDS011;10746;50.178;8.186;2023-04-27T05:14:07;9.93;;;5.93;;
21175;SDS011;10746;50.178;8.186;2023-04-27T05:16:34;11.03;;;5.93;;
21175;SDS011;10746;50.178;8.186;2023-04-27T05:19:01;7.47;;;5.93;;
21175;SDS011;10746;50.178;8.186;2023-04-27T05:21:29;10.87;;;5.43;;
21175;SDS011;10746;50.178;8.186;2023-04-27T05:23:59;10.27;;;5.53;;
21175;SDS011;10746;50.178;8.186;2023-04-27T05:26:25;9.13;;;6.77;;
21175;SDS011;10746;50.178;8.186;2023-04-27T05:28:52;9.40;;;6.33;;
21175;SDS011;10746;50.178;8.186;2023-04-27T05:31:19;8.03;;;5.73;;
21175;SDS011;10746;50.178;8.186;2023-04-27T05:33:45;13.47;;;5.80;;
21175;SDS011;10746;50.178;8.186;2023-04-27T05:36:12;9.40;;;5.97;;
21175;SDS011;10746;50.178;8.186;2023-04-27T05:38:39;11.43;;;5.87;;
21175;SDS011;10746;50.178;8.186;2023-04-27T05:41:07;8.60;;;5.83;;
21175;SDS011;10746;50.178;8.186;2023-04-27T05:43:33;14.93;;;6.17;;
21175;SDS011;10746;50.178;8.186;2023-04-27T05:46:02;11.47;;;6.33;;
21175;SDS011;10746;50.178;8.186;2023-04-27T05:48:29;10.93;;;6.27;;
21175;SDS011;10746;50.178;8.186;2023-04-27T05:50:59;12.77;;;6.73;;
21175;SDS011;10746;50.178;8.186;2023-04-27T05:53:26;10.97;;;5.87;;
21175;SDS011;10746;50.178;8.186;2023-04-27T05:55:53;11.57;;;6.50;;
21175;SDS011;10746;50.178;8.186;2023-04-27T05:58:21;10.37;;;6.37;;
21175;SDS011;10746;50.178;8.186;2023-04-27T06:00:48;11.40;;;6.20;;
21175;SDS011;10746;50.178;8.186;2023-04-27T06:03:16;13.53;;;5.90;;
21175;SDS011;10746;50.178;8.186;2023-04-27T06:05:43;8.27;;;5.97;;
21175;SDS011;10746;50.178;8.186;2023-04-27T06:08:10;8.23;;;5.97;;
21175;SDS011;10746;50.178;8.186;2023-04-27T06:10:37;10.37;;;6.60;;
21175;SDS011;10746;50.178;8.186;2023-04-27T06:13:04;9.60;;;5.77;;
21175;SDS011;10746;50.178;8.186;2023-04-27T06:15:32;22.00;;;5.80;;
21175;SDS011;10746;50.178;8.186;2023-04-27T06:17:58;11.83;;;5.57;;
21175;SDS011;10746;50.178;8.186;2023-04-27T06:20:25;11.90;;;6.60;;
21175;SDS011;10746;50.178;8.186;2023-04-27T06:22:52;11.30;;;6.23;;
21175;SDS011;10746;50.178;8.186;2023-04-27T06:25:19;16.07;;;6.50;;
21175;SDS011;10746;50.178;8.186;2023-04-27T06:27:45;11.67;;;6.03;;
21175;SDS011;10746;50.178;8.186;2023-04-27T06:30:12;10.47;;;6.70;;
21175;SDS011;10746;50.178;8.186;2023-04-27T06:32:40;10.67;;;6.20;;
21175;SDS011;10746;50.178;8.186;2023-04-27T06:35:07;12.10;;;6.00;;
21175;SDS011;10746;50.178;8.186;2023-04-27T06:37:35;16.73;;;6.83;;
21175;SDS011;10746;50.178;8.186;2023-04-27T06:40:03;9.23;;;6.17;;
21175;SDS011;10746;50.178;8.186;2023-04-27T06:42:32;12.10;;;5.97;;
21175;SDS011;10746;50.178;8.186;2023-04-27T06:44:59;16.97;;;5.40;;
21175;SDS011;10746;50.178;8.186;2023-04-27T06:47:26;8.10;;;4.97;;
21175;SDS011;10746;50.178;8.186;2023-04-27T06:49:54;10.23;;;4.50;;
21175;SDS011;10746;50.178;8.186;2023-04-27T06:52:21;8.90;;;3.90;;
21175;SDS011;10746;50.178;8.186;2023-04-27T06:54:48;11.17;;;4.30;;
21175;SDS011;10746;50.178;8.186;2023-04-27T06:57:14;8.80;;;4.13;;
21175;SDS011;10746;50.178;8.186;2023-04-27T06:59:41;10.60;;;4.00;;
21175;SDS011;10746;50.178;8.186;2023-04-27T07:02:08;6.07;;;3.97;;
21175;SDS011;10746;50.178;8.186;2023-04-27T07:04:34;3.93;;;3.63;;
21175;SDS011;10746;50.178;8.186;2023-04-27T07:07:03;7.93;;;3.77;;
21175;SDS011;10746;50.178;8.186;2023-04-27T07:09:30;6.77;;;4.40;;
21175;SDS011;10746;50.178;8.186;2023-04-27T07:11:57;10.03;;;4.07;;
21175;SDS011;10746;50.178;8.186;2023-04-27T07:14:25;7.85;;;4.70;;
21175;SDS011;10746;50.178;8.186;2023-04-27T07:16:52;8.40;;;3.97;;
21175;SDS011;10746;50.178;8.186;2023-04-27T07:19:18;7.05;;;4.22;;
21175;SDS011;10746;50.178;8.186;2023-04-27T07:21:45;6.53;;;4.03;;
21175;SDS011;10746;50.178;8.186;2023-04-27T07:24:13;6.43;;;3.75;;
21175;SDS011;10746;50.178;8.186;2023-04-27T07:26:40;4.00;;;3.45;;
21175;SDS011;10746;50.178;8.186;2023-04-27T07:29:06;9.57;;;4.10;;
21175;SDS011;10746;50.178;8.186;2023-04-27T07:31:33;7.90;;;3.75;;
21175;SDS011;10746;50.178;8.186;2023-04-27T07:34:00;4.82;;;4.00;;
21175;SDS011;10746;50.178;8.186;2023-04-27T07:36:27;6.32;;;3.72;;
21175;SDS011;10746;50.178;8.186;2023-04-27T07:38:53;6.28;;;3.92;;
21175;SDS011;10746;50.178;8.186;2023-04-27T07:41:23;7.43;;;3.92;;
21175;SDS011;10746;50.178;8.186;2023-04-27T07:43:50;6.18;;;3.75;;
21175;SDS011;10746;50.178;8.186;2023-04-27T07:46:17;7.97;;;4.07;;
21175;SDS011;10746;50.178;8.186;2023-04-27T07:48:43;12.30;;;3.83;;
21175;SDS011;10746;50.178;8.186;2023-04-27T07:51:13;6.75;;;3.50;;
21175;SDS011;10746;50.178;8.186;2023-04-27T07:53:41;5.50;;;3.35;;
21175;SDS011;10746;50.178;8.186;2023-04-27T07:56:08;7.65;;;3.80;;
21175;SDS011;10746;50.178;8.186;2023-04-27T07:58:36;6.78;;;3.40;;
21175;SDS011;10746;50.178;8.186;2023-04-27T08:01:03;8.20;;;4.05;;
21175;SDS011;10746;50.178;8.186;2023-04-27T08:03:30;8.82;;;3.25;;
21175;SDS011;10746;50.178;8.186;2023-04-27T08:05:57;3.65;;;2.90;;
21175;SDS011;10746;50.178;8.186;2023-04-27T08:08:24;6.32;;;3.47;;
21175;SDS011;10746;50.178;8.186;2023-04-27T08:10:50;5.63;;;3.10;;
21175;SDS011;10746;50.178;8.186;2023-04-27T08:13:17;5.95;;;2.90;;
21175;SDS011;10746;50.178;8.186;2023-04-27T08:15:45;11.63;;;3.28;;
21175;SDS011;10746;50.178;8.186;2023-04-27T08:18:12;7.20;;;3.40;;
21175;SDS011;10746;50.178;8.186;2023-04-27T08:20:38;6.47;;;3.00;;
21175;SDS011;10746;50.178;8.186;2023-04-27T08:23:05;5.45;;;3.35;;
21175;SDS011;10746;50.178;8.186;2023-04-27T08:25:32;6.03;;;3.05;;
21175;SDS011;10746;50.178;8.186;2023-04-27T08:28:01;11.25;;;3.13;;
21175;SDS011;10746;50.178;8.186;2023-04-27T08:30:27;7.25;;;3.17;;
21175;SDS011;10746;50.178;8.186;2023-04-27T08:32:55;7.15;;;3.63;;
21175;SDS011;10746;50.178;8.186;2023-04-27T08:35:22;4.70;;;2.92;;
21175;SDS011;10746;50.178;8.186;2023-04-27T08:37:49;6.72;;;3.33;;
21175;SDS011;10746;50.178;8.186;2023-04-27T08:40:15;7.75;;;2.97;;
21175;SDS011;10746;50.178;8.186;2023-04-27T08:42:52;6.35;;;2.92;;
21175;SDS011;10746;50.178;8.186;2023-04-27T08:45:20;9.35;;;3.00;;
21175;SDS011;10746;50.178;8.186;2023-04-27T08:47:48;6.40;;;3.47;;
21175;SDS011;10746;50.178;8.186;2023-04-27T08:50:16;5.88;;;2.92;;
21175;SDS011;10746;50.178;8.186;2023-04-27T08:52:44;4.82;;;3.15;;
21175;SDS011;10746;50.178;8.186;2023-04-27T08:55:11;7.32;;;2.80;;
21175;SDS011;10746;50.178;8.186;2023-04-27T08:57:38;7.25;;;2.80;;
21175;SDS011;10746;50.178;8.186;2023-04-27T09:00:05;6.20;;;3.22;;
21175;SDS011;10746;50.178;8.186;2023-04-27T09:02:42;6.78;;;2.90;;
21175;SDS011;10746;50.178;8.186;2023-04-27T09:05:14;8.00;;;2.90;;
21175;SDS011;10746;50.178;8.186;2023-04-27T09:07:54;6.70;;;2.90;;
21175;SDS011;10746;50.178;8.186;2023-04-27T09:10:21;6.75;;;3.40;;
21175;SDS011;10746;50.178;8.186;2023-04-27T09:12:53;5.93;;;3.33;;
21175;SDS011;10746;50.178;8.186;2023-04-27T09:15:21;10.63;;;3.30;;
21175;SDS011;10746;50.178;8.186;2023-04-27T09:17:51;7.57;;;2.83;;
21175;SDS011;10746;50.178;8.186;2023-04-27T09:20:19;5.88;;;2.70;;
21175;SDS011;10746;50.178;8.186;2023-04-27T09:22:48;4.68;;;2.83;;
21175;SDS011;10746;50.178;8.186;2023-04-27T09:25:22;8.88;;;3.47;;
21175;SDS011;10746;50.178;8.186;2023-04-27T09:27:50;9.93;;;3.47;;
21175;SDS011;10746;50.178;8.186;2023-04-27T09:30:17;6.18;;;3.63;;
21175;SDS011;10746;50.178;8.186;2023-04-27T09:32:50;7.03;;;2.83;;
21175;SDS011;10746;50.178;8.186;2023-04-27T09:35:21;6.28;;;3.17;;
21175;SDS011;10746;50.178;8.186;2023-04-27T09:37:50;4.32;;;2.95;;
21175;SDS011;10746;50.178;8.186;2023-04-27T09:40:18;9.57;;;3.00;;
21175;SDS011;10746;50.178;8.186;2023-04-27T09:42:48;5.72;;;3.00;;
21175;SDS011;10746;50.178;8.186;2023-04-27T09:45:15;7.38;;;3.13;;
21175;SDS011;10746;50.178;8.186;2023-04-27T09:47:42;6.70;;;3.10;;
21175;SDS011;10746;50.178;8.186;2023-04-27T09:50:11;7.22;;;3.17;;
21175;SDS011;10746;50.178;8.186;2023-04-27T09:52:38;7.88;;;3.05;;
21175;SDS011;10746;50.178;8.186;2023-04-27T09:55:07;5.57;;;2.97;;
21175;SDS011;10746;50.178;8.186;2023-04-27T09:57:37;10.00;;;3.08;;
21175;SDS011;10746;50.178;8.186;2023-04-27T10:00:16;7.93;;;2.85;;
21175;SDS011;10746;50.178;8.186;2023-04-27T10:02:54;5.18;;;3.10;;
21175;SDS011;10746;50.178;8.186;2023-04-27T10:05:41;8.30;;;3.20;;
21175;SDS011;10746;50.178;8.186;2023-04-27T10:08:17;6.03;;;3.20;;
21175;SDS011;10746;50.178;8.186;2023-04-27T10:10:48;8.77;;;3.35;;
21175;SDS011;10746;50.178;8.186;2023-04-27T10:13:22;6.43;;;3.30;;
21175;SDS011;10746;50.178;8.186;2023-04-27T10:15:50;9.93;;;3.28;;
21175;SDS011;10746;50.178;8.186;2023-04-27T10:18:27;9.05;;;3.60;;
21175;SDS011;10746;50.178;8.186;2023-04-27T10:20:55;5.82;;;3.17;;
21175;SDS011;10746;50.178;8.186;2023-04-27T10:23:22;7.65;;;3.17;;
21175;SDS011;10746;50.178;8.186;2023-04-27T10:25:51;5.50;;;2.85;;
21175;SDS011;10746;50.178;8.186;2023-04-27T10:28:19;5.85;;;3.10;;
21175;SDS011;10746;50.178;8.186;2023-04-27T10:30:46;3.70;;;3.35;;
21175;SDS011;10746;50.178;8.186;2023-04-27T10:33:15;8.45;;;3.50;;
21175;SDS011;10746;50.178;8.186;2023-04-27T10:35:43;7.18;;;3.30;;
21175;SDS011;10746;50.178;8.186;2023-04-27T10:38:19;7.28;;;3.30;;
21175;SDS011;10746;50.178;8.186;2023-04-27T10:40:54;7.57;;;3.28;;
21175;SDS011;10746;50.178;8.186;2023-04-27T10:43:23;10.05;;;3.30;;
21175;SDS011;10746;50.178;8.186;2023-04-27T10:45:51;8.57;;;3.05;;
21175;SDS011;10746;50.178;8.186;2023-04-27T10:48:18;7.78;;;3.28;;
21175;SDS011;10746;50.178;8.186;2023-04-27T10:50:45;5.80;;;2.90;;
21175;SDS011;10746;50.178;8.186;2023-04-27T10:53:12;5.40;;;3.10;;
21175;SDS011;10746;50.178;8.186;2023-04-27T10:55:39;10.27;;;3.42;;
21175;SDS011;10746;50.178;8.186;2023-04-27T10:58:07;10.13;;;3.40;;
21175;SDS011;10746;50.178;8.186;2023-04-27T11:00:35;8.35;;;3.35;;
21175;SDS011;10746;50.178;8.186;2023-04-27T11:03:09;7.57;;;3.15;;
21175;SDS011;10746;50.178;8.186;2023-04-27T11:05:38;5.38;;;3.38;;
21175;SDS011;10746;50.178;8.186;2023-04-27T11:08:07;7.05;;;3.47;;
21175;SDS011;10746;50.178;8.186;2023-04-27T11:10:37;4.90;;;3.00;;
21175;SDS011;10746;50.178;8.186;2023-04-27T11:13:07;3.53;;;3.13;;
21175;SDS011;10746;50.178;8.186;2023-04-27T11:15:45;6.53;;;3.33;;
21175;SDS011;10746;50.178;8.186;2023-04-27T11:18:13;5.90;;;3.13;;
21175;SDS011;10746;50.178;8.186;2023-04-27T11:20:40;3.40;;;3.13;;
21175;SDS011;10746;50.178;8.186;2023-04-27T11:23:08;8.98;;;3.72;;
21175;SDS011;10746;50.178;8.186;2023-04-27T11:25:36;5.55;;;3.30;;
21175;SDS011;10746;50.178;8.186;2023-04-27T11:28:03;8.18;;;3.65;;
21175;SDS011;10746;50.178;8.186;2023-04-27T11:30:31;5.72;;;3.28;;
21175;SDS011;10746;50.178;8.186;2023-04-27T11:32:58;7.35;;;3.53;;
21175;SDS011;10746;50.178;8.186;2023-04-27T11:35:33;8.35;;;3.38;;
21175;SDS011;10746;50.178;8.186;2023-04-27T11:38:01;8.10;;;3.38;;
21175;SDS011;10746;50.178;8.186;2023-04-27T11:40:28;16.80;;;4.03;;
21175;SDS011;10746;50.178;8.186;2023-04-27T11:42:58;7.00;;;3.42;;
21175;SDS011;10746;50.178;8.186;2023-04-27T11:45:28;9.85;;;4.10;;
21175;SDS011;10746;50.178;8.186;2023-04-27T11:47:57;10.73;;;3.65;;
21175;SDS011;10746;50.178;8.186;2023-04-27T11:50:24;8.98;;;4.32;;
21175;SDS011;10746;50.178;8.186;2023-04-27T11:52:52;10.40;;;3.80;;
21175;SDS011;10746;50.178;8.186;2023-04-27T11:55:20;8.27;;;3.30;;
21175;SDS011;10746;50.178;8.186;2023-04-27T11:57:47;11.52;;;3.75;;
21175;SDS011;10746;50.178;8.186;2023-04-27T12:00:14;8.50;;;4.03;;
21175;SDS011;10746;50.178;8.186;2023-04-27T12:02:41;5.68;;;3.25;;
21175;SDS011;10746;50.178;8.186;2023-04-27T12:05:10;8.95;;;3.75;;
21175;SDS011;10746;50.178;8.186;2023-04-27T12:07:37;8.57;;;3.70;;
21175;SDS011;10746;50.178;8.186;2023-04-27T12:10:04;9.05;;;4.30;;
21175;SDS011;10746;50.178;8.186;2023-04-27T12:12:31;9.48;;;3.97;;
21175;SDS011;10746;50.178;8.186;2023-04-27T12:14:58;6.22;;;3.63;;
21175;SDS011;10746;50.178;8.186;2023-04-27T12:17:25;5.93;;;3.40;;
21175;SDS011;10746;50.178;8.186;2023-04-27T12:19:52;8.00;;;3.63;;
21175;SDS011;10746;50.178;8.186;2023-04-27T12:22:20;10.43;;;4.53;;
21175;SDS011;10746;50.178;8.186;2023-04-27T12:24:47;8.13;;;4.20;;
21175;SDS011;10746;50.178;8.186;2023-04-27T12:27:14;8.10;;;3.65;;
21175;SDS011;10746;50.178;8.186;2023-04-27T12:29:41;5.22;;;3.65;;
21175;SDS011;10746;50.178;8.186;2023-04-27T12:32:07;3.72;;;3.30;;
21175;SDS011;10746;50.178;8.186;2023-04-27T12:34:34;5.68;;;3.47;;
21175;SDS011;10746;50.178;8.186;2023-04-27T12:37:03;7.38;;;3.42;;
21175;SDS011;10746;50.178;8.186;2023-04-27T12:39:31;10.07;;;3.90;;
21175;SDS011;10746;50.178;8.186;2023-04-27T12:41:58;7.75;;;4.00;;
21175;SDS011;10746;50.178;8.186;2023-04-27T12:44:26;12.05;;;3.90;;
21175;SDS011;10746;50.178;8.186;2023-04-27T12:46:53;9.25;;;3.70;;
21175;SDS011;10746;50.178;8.186;2023-04-27T12:49:20;6.72;;;3.80;;
21175;SDS011;10746;50.178;8.186;2023-04-27T12:51:47;8.07;;;4.07;;
21175;SDS011;10746;50.178;8.186;2023-04-27T12:54:15;6.00;;;3.47;;
21175;SDS011;10746;50.178;8.186;2023-04-27T12:56:44;7.65;;;3.63;;
21175;SDS011;10746;50.178;8.186;2023-04-27T12:59:11;5.50;;;3.50;;
21175;SDS011;10746;50.178;8.186;2023-04-27T13:01:37;6.40;;;3.70;;
21175;SDS011;10746;50.178;8.186;2023-04-27T13:04:04;6.55;;;3.78;;
21175;SDS011;10746;50.178;8.186;2023-04-27T13:06:31;10.90;;;3.97;;
21175;SDS011;10746;50.178;8.186;2023-04-27T13:08:58;6.22;;;3.80;;
21175;SDS011;10746;50.178;8.186;2023-04-27T13:11:25;12.27;;;3.65;;
21175;SDS011;10746;50.178;8.186;2023-04-27T13:13:54;5.53;;;3.75;;
21175;SDS011;10746;50.178;8.186;2023-04-27T13:16:21;8.80;;;4.10;;
21175;SDS011;10746;50.178;8.186;2023-04-27T13:18:49;7.95;;;3.30;;
21175;SDS011;10746;50.178;8.186;2023-04-27T13:21:16;7.32;;;3.70;;
21175;SDS011;10746;50.178;8.186;2023-04-27T13:23:43;7.53;;;3.70;;
21175;SDS011;10746;50.178;8.186;2023-04-27T13:26:10;9.55;;;3.67;;
21175;SDS011;10746;50.178;8.186;2023-04-27T13:28:37;6.93;;;3.88;;
21175;SDS011;10746;50.178;8.186;2023-04-27T13:31:05;9.07;;;3.92;;
21175;SDS011;10746;50.178;8.186;2023-04-27T13:33:32;4.38;;;3.38;;
21175;SDS011;10746;50.178;8.186;2023-04-27T13:36:05;7.47;;;3.60;;
21175;SDS011;10746;50.178;8.186;2023-04-27T13:38:32;9.10;;;4.15;;
21175;SDS011;10746;50.178;8.186;2023-04-27T13:40:59;9.90;;;3.60;;
21175;SDS011;10746;50.178;8.186;2023-04-27T13:43:26;5.15;;;3.50;;
21175;SDS011;10746;50.178;8.186;2023-04-27T13:45:52;14.25;;;4.20;;
21175;SDS011;10746;50.178;8.186;2023-04-27T13:48:21;5.65;;;3.55;;
21175;SDS011;10746;50.178;8.186;2023-04-27T13:50:48;8.70;;;3.92;;
21175;SDS011;10746;50.178;8.186;2023-04-27T13:53:15;7.63;;;3.55;;
21175;SDS011;10746;50.178;8.186;2023-04-27T13:55:42;5.18;;;3.25;;
21175;SDS011;10746;50.178;8.186;2023-04-27T13:58:09;6.72;;;3.95;;
21175;SDS011;10746;50.178;8.186;2023-04-27T14:00:36;6.97;;;3.45;;
21175;SDS011;10746;50.178;8.186;2023-04-27T14:03:03;6.43;;;3.58;;
21175;SDS011;10746;50.178;8.186;2023-04-27T14:05:31;6.32;;;3.33;;
21175;SDS011;10746;50.178;8.186;2023-04-27T14:07:58;7.47;;;4.00;;
21175;SDS011;10746;50.178;8.186;2023-04-27T14:10:25;9.10;;;3.80;;
21175;SDS011;10746;50.178;8.186;2023-04-27T14:12:52;9.70;;;3.45;;
21175;SDS011;10746;50.178;8.186;2023-04-27T14:15:20;5.47;;;3.72;;
21175;SDS011;10746;50.178;8.186;2023-04-27T14:17:47;6.05;;;3.42;;
21175;SDS011;10746;50.178;8.186;2023-04-27T14:20:14;8.50;;;3.70;;
21175;SDS011;10746;50.178;8.186;2023-04-27T14:22:42;8.25;;;3.85;;
21175;SDS011;10746;50.178;8.186;2023-04-27T14:25:09;7.60;;;3.97;;
21175;SDS011;10746;50.178;8.186;2023-04-27T14:27:36;11.45;;;3.42;;
21175;SDS011;10746;50.178;8.186;2023-04-27T14:30:03;9.55;;;3.67;;
21175;SDS011;10746;50.178;8.186;2023-04-27T14:32:30;7.88;;;4.45;;
21175;SDS011;10746;50.178;8.186;2023-04-27T14:34:57;9.60;;;3.97;;
21175;SDS011;10746;50.178;8.186;2023-04-27T14:37:24;7.90;;;3.80;;
21175;SDS011;10746;50.178;8.186;2023-04-27T14:39:52;8.93;;;3.42;;
21175;SDS011;10746;50.178;8.186;2023-04-27T14:42:19;6.55;;;3.70;;
21175;SDS011;10746;50.178;8.186;2023-04-27T14:44:46;7.65;;;4.53;;
21175;SDS011;10746;50.178;8.186;2023-04-27T14:47:12;8.40;;;3.63;;